Time;durP1;ratioP1;P1;durP2;ratioP2;P2;SDS_P1;SDS_P2;PMS_P1;PMS_P2;Temp;Humidity;BMP_temperature;BMP_pressure;BME280_temperature;BME280_humidity;BME280_pressure;Samples;Min_cycle;Max_cycle;Signal;HPM_P1;HPM_P2
2022/01/16 00:07:45;;;;;;;22.87;6.77;;;-3.00;99.90;;;-5.60;83.50;101231.13;10382558;28;97765;-78
2022/01/16 00:12:49;;;;;;;16.50;5.80;;;-3.10;99.90;;;-5.65;83.45;101217.44;10363174;28;98379;-77
2022/01/16 00:22:56;;;;;;;21.27;7.67;;;-3.20;99.90;;;-5.69;83.74;101245.19;10410244;27;97093;-77
2022/01/16 00:27:58;;;;;;;30.93;9.17;;;-3.20;99.90;;;-5.75;83.58;101271.22;10379046;27;96635;-77
2022/01/16 00:33:01;;;;;;;30.20;11.17;;;-3.30;99.90;;;-5.80;84.12;101217.88;10421824;27;97454;-77
2022/01/16 00:38:06;;;;;;;39.43;13.00;;;-3.30;99.90;;;-5.83;84.39;101249.00;10418565;27;97420;-77
2022/01/16 00:43:08;;;;;;;35.93;11.53;;;-3.40;99.90;;;-5.85;85.02;101230.91;10427491;27;96838;-77
2022/01/16 00:48:11;;;;;;;27.10;9.83;;;-3.40;99.90;;;-5.87;85.16;101217.19;10445129;27;96642;-77
2022/01/16 00:53:14;;;;;;;21.60;7.77;;;-3.40;99.90;;;-5.92;85.03;101203.53;10403808;28;96587;-77
2022/01/16 00:58:17;;;;;;;18.43;6.80;;;-3.50;99.90;;;-5.98;85.45;101221.81;10384406;28;96827;-77
2022/01/16 01:03:20;;;;;;;17.33;7.30;;;-3.50;99.90;;;-6.03;85.81;101188.25;10398585;27;97379;-78
2022/01/16 01:08:27;;;;;;;13.80;5.80;;;-3.60;99.90;;;-5.99;85.95;101200.25;10400789;27;97136;-77
2022/01/16 01:18:34;;;;;;;15.13;5.37;;;-3.50;99.90;;;-5.91;85.98;101163.81;10420795;27;96997;-77
2022/01/16 01:23:37;;;;;;;13.03;5.50;;;-3.50;99.90;;;-5.93;85.85;101132.78;10392795;28;96677;-77
2022/01/16 01:28:40;;;;;;;20.57;7.73;;;-3.50;99.90;;;-5.96;86.11;101138.03;10382353;28;96985;-77
2022/01/16 01:33:43;;;;;;;23.17;7.70;;;-3.50;99.90;;;-6.01;85.90;101193.38;10408402;27;96589;-77
2022/01/16 01:38:46;;;;;;;18.13;6.60;;;-3.60;99.90;;;-6.06;86.27;101226.28;10414121;27;98713;-77
2022/01/16 01:54:53;;;;;;;23.13;5.73;;;-3.70;99.90;;;-6.25;86.57;101193.09;10353442;28;97001;-77
2022/01/16 01:59:56;;;;;;;19.63;6.87;;;-3.80;99.90;;;-6.27;86.78;101187.13;10400555;27;98549;-77
2022/01/16 02:04:59;;;;;;;22.77;7.37;;;-3.80;99.90;;;-6.34;87.12;101203.69;10436349;27;96638;-77
2022/01/16 02:10:04;;;;;;;14.13;5.30;;;-3.90;99.90;;;-6.37;87.12;101205.50;10378250;27;96641;-77
2022/01/16 02:15:32;;;;;;;27.87;7.17;;;-3.90;99.90;;;-6.41;87.36;101229.75;10373068;28;97507;-77
2022/01/16 02:31:20;;;;;;;14.17;4.97;;;-4.00;99.90;;;-6.34;87.07;101203.69;10364262;28;96583;-77
2022/01/16 02:36:30;;;;;;;24.73;9.57;;;-3.90;99.90;;;-6.36;86.85;101212.34;10378373;27;96514;-77
2022/01/16 02:41:34;;;;;;;23.83;7.97;;;-3.90;99.90;;;-6.41;87.09;101212.50;10367544;28;98506;-78
2022/01/16 02:46:37;;;;;;;17.53;6.20;;;-4.00;99.90;;;-6.48;86.73;101231.59;10390361;27;96604;-78
2022/01/16 02:51:40;;;;;;;18.80;6.30;;;-4.00;99.90;;;-6.55;86.35;101227.44;10369457;28;97401;-78
2022/01/16 02:56:45;;;;;;;18.90;6.73;;;-4.10;99.90;;;-6.64;86.86;101225.09;10362132;28;97084;-78
2022/01/16 03:01:49;;;;;;;18.60;7.23;;;-4.10;99.90;;;-6.71;86.56;101220.94;10371449;28;98098;-78
2022/01/16 03:06:53;;;;;;;22.50;7.33;;;-4.20;99.90;;;-6.78;86.36;101212.44;10362700;28;96779;-78
2022/01/16 03:11:56;;;;;;;26.53;6.63;;;-4.20;99.90;;;-6.82;86.63;101214.25;10351894;28;97420;-78
2022/01/16 03:16:59;;;;;;;19.20;7.03;;;-4.30;99.90;;;-6.86;87.07;101220.38;10369700;28;96596;-78
2022/01/16 03:22:03;;;;;;;16.17;5.83;;;-4.30;99.90;;;-6.90;86.76;101215.28;10395546;28;96466;-78
2022/01/16 03:27:11;;;;;;;15.97;5.23;;;-4.40;99.90;;;-6.94;86.62;101211.94;10355535;28;96827;-78
2022/01/16 03:32:18;;;;;;;16.47;5.00;;;-4.40;99.90;;;-6.94;87.41;101203.34;10407508;27;97552;-78
2022/01/16 03:37:21;;;;;;;19.57;6.13;;;-4.40;99.90;;;-6.97;87.16;101191.31;10392880;28;97272;-78
2022/01/16 03:42:28;;;;;;;20.77;7.03;;;-4.50;99.90;;;-6.98;87.41;101199.09;10362117;28;96671;-77
2022/01/16 03:47:32;;;;;;;19.43;6.07;;;-4.50;99.90;;;-6.99;87.68;101198.25;10373470;28;97274;-78
2022/01/16 03:52:35;;;;;;;17.80;5.33;;;-4.50;99.90;;;-7.02;87.88;101193.13;10366316;28;98377;-78
2022/01/16 03:57:38;;;;;;;21.80;7.30;;;-4.50;99.90;;;-7.02;87.64;101195.72;10381770;27;98674;-78
2022/01/16 04:02:41;;;;;;;24.53;8.00;;;-4.50;99.90;;;-7.06;87.85;101194.97;10381489;28;96763;-77
2022/01/16 04:07:44;;;;;;;25.53;9.70;;;-4.60;99.90;;;-7.10;87.87;101198.47;10365929;28;98616;-77
2022/01/16 04:12:48;;;;;;;29.17;8.40;;;-4.60;99.90;;;-7.15;88.38;101213.22;10391942;27;98457;-78
2022/01/16 04:17:51;;;;;;;44.40;11.73;;;-4.60;99.90;;;-7.19;87.93;101208.16;10402866;27;98345;-78
2022/01/16 04:22:54;;;;;;;36.47;9.90;;;-4.70;99.90;;;-7.21;87.72;101205.59;10424614;27;96829;-77
2022/01/16 04:27:57;;;;;;;34.57;10.00;;;-4.70;99.90;;;-7.27;87.80;101211.72;10396077;28;96717;-78
2022/01/16 04:33:00;;;;;;;23.03;7.73;;;-4.70;99.90;;;-7.32;88.42;101204.94;10422381;27;96595;-78
2022/01/16 04:38:03;;;;;;;22.03;7.63;;;-4.80;99.90;;;-7.35;88.39;101192.13;10386591;28;96658;-78
2022/01/16 04:48:27;;;;;;;13.77;5.30;;;-4.90;99.90;;;-7.44;88.46;101192.28;10415041;27;96617;-78
2022/01/16 04:53:30;;;;;;;17.70;7.37;;;-4.90;99.90;;;-7.51;88.82;101176.06;10398249;27;97658;-77
2022/01/16 04:58:35;;;;;;;27.97;9.73;;;-5.00;99.90;;;-7.56;88.12;101175.28;10389423;28;98587;-76
2022/01/16 05:03:39;;;;;;;29.77;9.40;;;-5.00;99.90;;;-7.60;88.16;101176.25;10426938;27;96572;-77
2022/01/16 05:08:42;;;;;;;18.93;7.73;;;-5.00;99.90;;;-7.65;88.37;101180.66;10399565;27;97070;-78
2022/01/16 05:18:49;;;;;;;22.87;7.40;;;-5.10;99.90;;;-7.72;88.23;101177.34;10399833;27;97115;-77
2022/01/16 05:23:52;;;;;;;18.03;6.83;;;-5.20;99.90;;;-7.76;88.95;101167.94;10409896;27;96555;-77
2022/01/16 05:28:58;;;;;;;23.97;8.13;;;-5.20;99.90;;;-7.77;89.16;101167.97;10395150;27;96781;-77
2022/01/16 05:34:01;;;;;;;25.87;8.00;;;-5.20;99.90;;;-7.78;89.04;101182.63;10406494;27;96963;-77
2022/01/16 05:39:03;;;;;;;25.13;8.60;;;-5.30;99.90;;;-7.77;89.15;101173.13;10416539;27;97393;-77
2022/01/16 05:44:06;;;;;;;30.80;8.47;;;-5.30;99.90;;;-7.78;89.14;101185.19;10416374;27;96675;-77
2022/01/16 05:49:10;;;;;;;25.43;9.37;;;-5.30;99.90;;;-7.78;89.11;101192.94;10401376;27;96669;-77
2022/01/16 05:54:13;;;;;;;26.43;8.97;;;-5.20;99.90;;;-7.71;89.33;101204.84;10404991;28;96557;-77
2022/01/16 05:59:16;;;;;;;27.77;9.83;;;-5.20;99.90;;;-7.67;90.04;101206.50;10430368;27;98388;-77
2022/01/16 06:04:20;;;;;;;34.13;11.50;;;-5.20;99.90;;;-7.61;90.16;101213.28;10408762;27;96914;-77
2022/01/16 06:09:25;;;;;;;40.43;12.23;;;-5.20;99.90;;;-7.59;90.50;101204.63;10415662;27;96554;-77
2022/01/16 06:14:28;;;;;;;31.13;11.37;;;-5.20;99.90;;;-7.52;90.67;101210.50;10400383;28;96669;-77
2022/01/16 06:19:31;;;;;;;27.70;9.77;;;-5.10;99.90;;;-7.48;90.36;101211.31;10441712;27;96913;-77
2022/01/16 06:24:34;;;;;;;30.07;10.63;;;-5.10;99.90;;;-7.49;90.29;101220.78;10378268;28;98586;-77
2022/01/16 06:29:37;;;;;;;32.20;10.77;;;-5.10;99.90;;;-7.51;90.35;101216.53;10383596;27;97435;-77
2022/01/16 06:34:40;;;;;;;32.80;12.23;;;-5.10;99.90;;;-7.53;90.71;101220.88;10417880;27;97141;-77
2022/01/16 06:39:43;;;;;;;30.50;9.77;;;-5.10;99.90;;;-7.55;90.44;101223.50;10408576;27;96753;-77
2022/01/16 06:44:47;;;;;;;32.90;11.93;;;-5.10;99.90;;;-7.57;90.57;101233.81;10392628;28;96790;-77
2022/01/16 06:49:51;;;;;;;32.90;10.97;;;-5.10;99.90;;;-7.55;90.91;101226.06;10421991;27;97198;-77
2022/01/16 06:54:55;;;;;;;36.57;13.37;;;-5.10;99.90;;;-7.52;90.48;101230.31;10379121;28;97700;-77
2022/01/16 06:59:57;;;;;;;44.57;17.13;;;-5.10;99.90;;;-7.37;90.99;101230.03;10416593;27;96705;-77
2022/01/16 07:05:02;;;;;;;53.27;15.87;;;-5.00;99.90;;;-6.97;91.25;101222.31;10412370;27;98286;-77
2022/01/16 07:10:06;;;;;;;97.80;32.67;;;-4.90;99.90;;;-6.61;90.76;101219.81;10410800;27;96972;-78
2022/01/16 07:15:10;;;;;;;93.20;28.93;;;-4.70;99.90;;;-6.29;91.01;101229.47;10417029;27;97062;-78
2022/01/16 07:20:14;;;;;;;66.77;23.33;;;-4.50;99.90;;;-5.96;90.98;101228.63;10382177;28;98197;-77
2022/01/16 07:25:17;;;;;;;49.73;20.80;;;-4.30;99.90;;;-5.54;90.44;101235.31;10414614;27;96499;-77
2022/01/16 07:30:20;;;;;;;63.00;19.47;;;-4.00;99.90;;;-5.06;90.35;101246.06;10387991;27;96718;-76
2022/01/16 07:35:23;;;;;;;74.77;24.00;;;-3.70;99.90;;;-4.75;89.05;101232.22;10406467;27;98209;-77
2022/01/16 07:40:40;;;;;;;37.93;15.80;;;-3.30;99.90;;;-4.57;88.17;101231.66;10362141;27;96655;-77
2022/01/16 07:45:43;;;;;;;38.07;14.83;;;-3.10;99.90;;;-4.21;87.22;101237.44;10380274;27;96961;-77
2022/01/16 07:50:47;;;;;;;28.83;12.57;;;-2.90;99.90;;;-3.64;86.78;101239.06;10409745;27;98178;-77
2022/01/16 07:55:50;;;;;;;35.33;14.53;;;-2.60;99.90;;;-3.08;85.60;101243.16;10401913;27;96716;-77
2022/01/16 08:00:53;;;;;;;30.00;13.27;;;-2.20;99.90;;;-2.74;82.53;101234.97;10377445;28;96678;-78
2022/01/16 08:05:56;;;;;;;32.90;14.60;;;-2.00;99.90;;;-2.61;80.24;101224.94;10408980;27;98459;-80
2022/01/16 08:10:59;;;;;;;30.37;14.37;;;-1.80;99.90;;;-2.46;78.54;101221.72;10405684;27;96711;-79
2022/01/16 08:16:06;;;;;;;28.87;15.03;;;-1.70;99.90;;;-2.34;77.02;101218.66;10383302;27;97577;-80
2022/01/16 08:21:10;;;;;;;38.60;16.27;;;-1.50;99.90;;;-1.99;77.58;101214.59;10390988;27;97926;-79
2022/01/16 08:26:13;;;;;;;33.93;16.27;;;-1.10;99.90;;;-1.50;76.93;101214.31;10389086;27;96670;-79
2022/01/16 08:31:16;;;;;;;40.33;16.67;;;-0.60;99.90;;;-1.15;75.70;101194.50;10394212;27;98032;-78
2022/01/16 08:36:19;;;;;;;43.83;20.40;;;-0.20;99.90;;;-0.69;74.56;101192.41;10414124;27;96580;-80
2022/01/16 08:41:22;;;;;;;37.80;17.27;;;0.20;99.90;;;-0.55;71.68;101171.69;10397756;27;96693;-80
2022/01/16 08:46:25;;;;;;;38.00;18.00;;;0.60;99.90;;;-0.52;71.10;101157.69;10410396;28;96513;-78
2022/01/16 08:51:29;;;;;;;43.77;20.23;;;0.70;99.90;;;-0.36;70.41;101166.44;10411015;27;96596;-78
2022/01/16 08:56:33;;;;;;;36.77;18.57;;;0.90;99.90;;;-0.11;69.41;101155.66;10399756;27;97102;-79
2022/01/16 09:01:35;;;;;;;33.43;16.73;;;1.20;99.90;;;0.30;68.94;101144.84;10399995;27;98090;-78
2022/01/16 09:06:39;;;;;;;28.97;15.13;;;1.50;99.90;;;0.67;67.57;101139.41;10372063;27;97176;-79
2022/01/16 09:11:47;;;;;;;34.50;15.17;;;1.80;99.90;;;0.53;66.26;101136.66;10398491;27;96736;-78
2022/01/16 09:16:51;;;;;;;36.97;17.63;;;1.90;99.90;;;0.04;66.70;101140.97;10356167;27;96820;-77
2022/01/16 09:21:53;;;;;;;32.07;16.00;;;1.70;99.90;;;-0.25;67.46;101143.25;10396020;27;96670;-77
2022/01/16 09:26:56;;;;;;;236.20;79.70;;;1.50;99.90;;;0.04;68.23;101141.81;10398138;28;96528;-77
2022/01/16 09:32:00;;;;;;;42.63;20.00;;;1.60;99.90;;;0.62;68.33;101132.72;10392784;27;98296;-77
2022/01/16 09:37:08;;;;;;;48.47;28.57;;;1.90;99.90;;;1.28;65.44;101120.34;10386707;27;96645;-77
2022/01/16 09:42:11;;;;;;;35.63;18.17;;;2.50;99.90;;;1.77;64.01;101117.56;10391142;28;98263;-78
2022/01/16 09:47:14;;;;;;;35.67;17.20;;;2.80;99.20;;;2.18;63.13;101100.31;10384186;27;96640;-77
2022/01/16 09:52:19;;;;;;;33.43;16.87;;;3.30;99.90;;;2.64;61.81;101093.13;10384607;27;96977;-77
2022/01/16 09:57:22;;;;;;;29.50;16.37;;;3.70;99.90;;;2.97;60.40;101089.31;10401185;27;96598;-77
2022/01/16 10:02:25;;;;;;;50.63;23.47;;;4.10;98.50;;;2.97;59.41;101081.44;10415095;27;97229;-76
2022/01/16 10:07:41;;;;;;;36.27;19.07;;;4.20;95.50;;;2.35;59.22;101066.88;10411401;27;97369;-77
2022/01/16 10:12:52;;;;;;;35.00;18.53;;;4.00;95.30;;;1.88;60.71;101057.50;10403253;27;97105;-76
2022/01/16 10:17:59;;;;;;;39.83;19.57;;;3.80;94.40;;;1.14;61.40;101065.31;10389657;27;98305;-76
2022/01/16 10:23:02;;;;;;;28.90;15.57;;;3.30;92.70;;;0.57;63.58;101066.72;10422127;27;98757;-76
2022/01/16 10:28:14;;;;;;;43.80;20.17;;;2.80;93.70;;;0.00;64.95;101064.50;10403419;27;96646;-76
2022/01/16 10:33:20;;;;;;;32.67;15.93;;;2.30;94.50;;;-0.30;66.75;101052.09;10402841;27;96666;-75
2022/01/16 10:38:27;;;;;;;35.80;17.57;;;2.00;95.80;;;-0.55;68.19;101044.63;10418566;27;96852;-76
2022/01/16 10:43:46;;;;;;;36.50;16.70;;;1.70;96.40;;;-0.65;69.00;101034.72;10360581;28;96800;-76
2022/01/16 10:48:49;;;;;;;36.80;15.60;;;1.50;97.70;;;-0.77;69.47;101030.13;10394531;27;96658;-76
2022/01/16 10:53:52;;;;;;;43.67;22.53;;;1.40;98.20;;;-0.73;70.56;101031.63;10396041;27;98813;-76
2022/01/16 10:58:56;;;;;;;57.90;18.27;;;1.30;99.50;;;0.20;71.63;101027.72;10396437;27;96955;-76
2022/01/16 11:04:01;;;;;;;39.93;19.77;;;1.90;99.90;;;1.57;69.61;101010.47;10390862;27;96680;-77
2022/01/16 11:09:04;;;;;;;32.90;14.30;;;2.90;99.90;;;2.51;65.75;101010.84;10384281;28;96545;-77
2022/01/16 11:14:07;;;;;;;38.53;16.63;;;3.70;99.50;;;3.07;62.65;101001.13;10412913;27;96676;-77
2022/01/16 11:19:10;;;;;;;29.80;16.07;;;4.50;98.30;;;3.62;60.92;100990.41;10389100;27;98371;-77
2022/01/16 11:29:29;;;;;;;32.83;17.77;;;5.10;91.90;;;3.04;58.78;100973.28;10397623;27;97651;-77
2022/01/16 11:34:32;;;;;;;41.97;17.90;;;4.90;91.00;;;2.48;59.70;100972.53;10396460;27;98655;-77
2022/01/16 11:39:37;;;;;;;32.00;16.07;;;4.50;90.40;;;1.96;60.30;100969.69;10393065;27;96966;-76
2022/01/16 11:44:52;;;;;;;39.57;17.00;;;4.10;90.30;;;1.45;62.08;100970.13;10355855;27;97053;-76
2022/01/16 11:50:07;;;;;;;36.27;17.33;;;3.60;90.80;;;1.20;63.12;100959.38;10397230;27;96805;-76
2022/01/16 11:55:12;;;;;;;55.00;26.17;;;3.30;91.60;;;1.06;63.63;100958.41;10405201;28;97326;-78
2022/01/16 12:00:17;;;;;;;72.77;24.67;;;3.20;92.00;;;0.91;64.25;100956.69;10423683;27;96831;-76
2022/01/16 12:05:28;;;;;;;37.87;17.10;;;3.00;92.20;;;0.86;64.48;100943.00;10386269;28;96634;-75
2022/01/16 12:10:57;;;;;;;56.47;23.60;;;2.90;92.60;;;0.74;65.05;100928.84;10396168;28;96615;-77
2022/01/16 12:16:33;;;;;;;39.80;20.43;;;2.80;92.70;;;0.74;65.17;100931.47;10402608;27;98846;-77
2022/01/16 12:21:36;;;;;;;32.43;15.33;;;2.70;93.10;;;0.76;65.42;100924.38;10378911;28;98642;-78
2022/01/16 12:26:41;;;;;;;48.73;20.23;;;2.70;93.30;;;0.79;65.39;100920.75;10403351;27;97248;-77
2022/01/16 12:31:44;;;;;;;34.50;16.57;;;2.80;93.30;;;0.78;65.42;100914.69;10412135;27;96579;-77
2022/01/16 12:36:47;;;;;;;44.70;16.87;;;2.80;93.50;;;0.77;65.30;100919.97;10406441;28;98194;-77
2022/01/16 12:41:54;;;;;;;36.13;14.87;;;2.80;93.40;;;0.78;65.23;100912.06;10409053;27;98272;-77
2022/01/16 12:46:58;;;;;;;44.07;17.47;;;2.80;93.50;;;0.83;65.78;100900.47;10421897;27;96992;-77
2022/01/16 12:52:02;;;;;;;34.77;15.93;;;2.80;93.50;;;0.86;65.92;100897.69;10389232;27;98325;-77
2022/01/16 12:57:05;;;;;;;34.10;15.67;;;2.90;93.70;;;0.85;65.93;100904.69;10399544;27;97500;-77
2022/01/16 13:02:17;;;;;;;30.70;14.03;;;2.80;93.70;;;0.83;66.07;100888.22;10403684;27;98515;-78
2022/01/16 13:07:20;;;;;;;37.47;15.50;;;2.90;93.80;;;0.84;66.35;100889.06;10401768;27;98252;-77
2022/01/16 13:12:24;;;;;;;32.80;14.70;;;2.90;94.00;;;0.89;66.26;100887.88;10422428;27;96979;-77
2022/01/16 13:17:30;;;;;;;35.13;14.97;;;2.90;94.10;;;0.96;66.33;100889.22;10405409;27;97105;-77
2022/01/16 13:22:37;;;;;;;25.87;13.47;;;3.00;94.20;;;1.02;66.15;100886.25;10435101;27;96539;-77
2022/01/16 13:27:43;;;;;;;32.23;14.47;;;3.00;94.10;;;1.00;66.25;100875.00;10407118;27;96604;-76
2022/01/16 13:32:46;;;;;;;30.07;14.63;;;3.00;94.10;;;0.97;66.12;100869.97;10399295;27;96581;-76
2022/01/16 13:38:04;;;;;;;27.37;13.77;;;3.00;94.10;;;0.91;66.19;100862.47;10432680;27;96413;-76
2022/01/16 13:43:12;;;;;;;32.87;16.97;;;3.00;94.10;;;0.90;66.21;100870.38;10440361;27;96459;-76
2022/01/16 13:48:29;;;;;;;35.43;15.97;;;2.90;94.10;;;0.88;66.77;100860.03;10413128;27;97086;-76
2022/01/16 13:53:38;;;;;;;30.43;14.90;;;2.90;94.40;;;0.89;66.63;100851.22;10374971;28;96490;-77
2022/01/16 13:58:56;;;;;;;35.30;15.47;;;2.90;94.30;;;0.88;66.91;100838.25;10452387;27;97233;-78
2022/01/16 14:04:11;;;;;;;33.40;16.60;;;2.90;94.30;;;0.86;66.64;100837.50;10419101;27;97176;-77
2022/01/16 14:09:15;;;;;;;32.87;15.60;;;2.90;94.40;;;0.81;66.71;100837.75;10452102;27;98229;-76
2022/01/16 14:14:24;;;;;;;33.37;16.57;;;2.90;94.40;;;0.74;67.19;100834.66;10385289;27;97167;-77
2022/01/16 14:24:47;;;;;;;34.47;16.27;;;2.80;94.80;;;0.69;67.57;100823.63;10403569;28;97052;-77
2022/01/16 14:29:54;;;;;;;38.27;18.07;;;2.80;94.90;;;0.68;67.79;100818.50;10437708;27;97093;-78
2022/01/16 14:34:59;;;;;;;35.53;17.57;;;2.80;95.00;;;0.66;67.77;100820.34;10407819;28;96782;-79
2022/01/16 14:40:03;;;;;;;42.40;18.57;;;2.70;95.10;;;0.63;68.10;100797.81;10431101;27;96600;-80
2022/01/16 14:45:07;;;;;;;36.27;16.83;;;2.70;95.20;;;0.61;68.09;100798.88;10443648;27;96900;-79
2022/01/16 14:50:12;;;;;;;54.80;23.10;;;2.70;95.30;;;0.52;68.15;100800.22;10408621;28;96422;-79
2022/01/16 14:55:16;;;;;;;63.43;24.27;;;2.60;95.40;;;0.42;68.40;100799.06;10363074;27;96561;-77
2022/01/16 15:00:19;;;;;;;41.40;18.33;;;2.50;95.60;;;0.29;68.72;100791.09;10412632;27;97575;-77
2022/01/16 15:05:22;;;;;;;47.13;19.90;;;2.40;95.80;;;0.14;69.02;100794.59;10399683;27;96614;-77
2022/01/16 15:10:30;;;;;;;45.33;19.23;;;2.30;95.80;;;-0.02;69.30;100790.22;10390432;28;97055;-78
2022/01/16 15:15:33;;;;;;;42.63;18.50;;;2.10;95.90;;;-0.19;69.92;100797.28;10366136;27;97514;-77
2022/01/16 15:20:37;;;;;;;40.87;17.17;;;2.00;96.30;;;-0.38;70.16;100800.06;10427792;27;98254;-76
2022/01/16 15:26:01;;;;;;;46.83;18.50;;;1.80;96.40;;;-0.58;70.39;100809.00;10406458;27;96810;-77
2022/01/16 15:31:04;;;;;;;41.70;17.43;;;1.70;96.30;;;-0.79;71.10;100812.72;10375536;27;96604;-77
2022/01/16 15:36:09;;;;;;;44.73;19.57;;;1.50;97.10;;;-1.03;71.74;100820.91;10369134;27;98449;-77
2022/01/16 15:41:11;;;;;;;50.23;21.20;;;1.30;96.90;;;-1.26;72.67;100827.31;10386976;28;96982;-76
2022/01/16 15:46:15;;;;;;;53.30;21.27;;;1.10;98.90;;;-1.46;73.24;100843.91;10387308;28;97320;-76
2022/01/16 15:51:23;;;;;;;53.83;20.97;;;0.80;99.70;;;-1.63;74.06;100841.28;10396633;27;97855;-76
2022/01/16 15:56:46;;;;;;;39.70;17.57;;;0.60;99.90;;;-1.76;74.30;100848.03;10392701;27;97710;-76
2022/01/16 16:01:49;;;;;;;50.90;21.30;;;0.50;99.90;;;-1.91;74.94;100847.84;10404062;27;97300;-76
2022/01/16 16:06:52;;;;;;;62.43;24.27;;;0.40;99.90;;;-2.01;75.51;100830.94;10371219;27;97493;-76
2022/01/16 16:11:56;;;;;;;60.47;22.90;;;0.30;99.90;;;-2.13;76.09;100848.91;10391007;28;97516;-77
2022/01/16 16:17:01;;;;;;;59.80;24.03;;;0.10;99.90;;;-2.23;76.35;100851.94;10413005;27;98275;-77
2022/01/16 16:22:04;;;;;;;60.83;24.43;;;0.10;99.90;;;-2.33;76.73;100842.03;10415456;27;97174;-77
2022/01/16 16:27:08;;;;;;;75.87;26.73;;;0.00;99.90;;;-2.44;76.94;100843.34;10392806;27;97387;-78
2022/01/16 16:32:16;;;;;;;74.83;28.80;;;-0.10;99.90;;;-2.52;77.28;100849.81;10398053;27;96917;-77
2022/01/16 16:37:19;;;;;;;54.27;22.80;;;-0.20;99.90;;;-2.62;78.04;100844.19;10410791;27;96792;-77
2022/01/16 16:42:22;;;;;;;55.33;21.20;;;-0.30;99.90;;;-2.70;78.41;100841.06;10411846;27;97957;-77
2022/01/16 16:47:27;;;;;;;58.70;21.30;;;-0.40;99.90;;;-2.76;78.59;100841.31;10420128;27;96675;-85
2022/01/16 16:52:30;;;;;;;55.90;21.27;;;-0.50;99.90;;;-2.85;78.61;100836.53;10429419;27;96895;-77
2022/01/16 16:57:33;;;;;;;58.93;22.23;;;-0.60;99.90;;;-2.97;78.82;100840.53;10386648;27;97063;-77
2022/01/16 17:02:37;;;;;;;61.70;21.60;;;-0.70;99.90;;;-3.10;79.34;100845.41;10405821;28;98398;-77
2022/01/16 17:07:40;;;;;;;55.20;21.30;;;-0.80;99.90;;;-3.18;79.81;100838.81;10380590;28;97237;-77
2022/01/16 17:12:47;;;;;;;50.30;19.73;;;-0.90;99.90;;;-3.29;80.70;100849.69;10379894;28;96660;-77
2022/01/16 17:17:51;;;;;;;54.23;19.93;;;-1.00;99.90;;;-3.38;80.97;100852.66;10365954;28;97940;-78
2022/01/16 17:22:54;;;;;;;60.00;20.47;;;-1.10;99.90;;;-3.43;81.10;100854.59;10350993;28;97261;-78
2022/01/16 17:27:57;;;;;;;67.13;23.13;;;-1.20;99.90;;;-3.46;81.38;100859.94;10361802;28;97127;-79
2022/01/16 17:33:00;;;;;;;64.30;22.10;;;-1.20;99.90;;;-3.48;81.57;100851.34;10347576;28;96594;-76
2022/01/16 17:38:03;;;;;;;63.27;20.50;;;-1.20;99.90;;;-3.52;81.58;100851.47;10359277;28;96676;-76
2022/01/16 17:43:06;;;;;;;61.17;21.17;;;-1.20;99.90;;;-3.53;81.66;100855.00;10360162;28;97406;-76
2022/01/16 17:48:09;;;;;;;57.30;19.37;;;-1.30;99.90;;;-3.53;82.15;100855.00;10373089;28;96662;-76
2022/01/16 17:53:12;;;;;;;52.57;20.10;;;-1.30;99.90;;;-3.54;82.00;100873.22;10354912;28;96618;-76
2022/01/16 17:58:16;;;;;;;69.23;24.53;;;-1.30;99.90;;;-3.60;82.32;100863.94;10353519;28;97437;-76
2022/01/16 18:03:20;;;;;;;74.27;26.53;;;-1.30;99.90;;;-3.66;82.72;100866.75;10343676;28;96711;-76
2022/01/16 18:08:23;;;;;;;65.17;22.80;;;-1.40;99.90;;;-3.70;82.81;100846.19;10355185;28;97223;-76
2022/01/16 18:13:26;;;;;;;71.47;23.03;;;-1.40;99.90;;;-3.73;82.80;100836.75;10346352;28;97261;-75
2022/01/16 18:18:31;;;;;;;66.73;23.03;;;-1.40;99.90;;;-3.77;82.76;100835.19;10405831;27;96628;-76
2022/01/16 18:23:34;;;;;;;94.03;29.43;;;-1.50;99.90;;;-3.78;83.22;100834.38;10390760;28;96625;-76
2022/01/16 18:28:41;;;;;;;86.60;27.27;;;-1.50;99.90;;;-3.78;83.27;100833.47;10370278;28;97020;-76
2022/01/16 18:33:43;;;;;;;98.60;33.87;;;-1.50;99.90;;;-3.80;83.49;100841.34;10396365;28;97408;-76
2022/01/16 18:38:46;;;;;;;86.67;28.70;;;-1.50;99.90;;;-3.81;83.62;100834.47;10412963;27;97991;-76
2022/01/16 18:43:49;;;;;;;78.27;27.93;;;-1.50;99.90;;;-3.83;83.64;100836.28;10401462;27;97992;-75
2022/01/16 18:48:56;;;;;;;77.67;29.03;;;-1.60;99.90;;;-3.87;83.54;100828.69;10396769;27;96610;-76
2022/01/16 18:53:59;;;;;;;78.27;27.93;;;-1.60;99.90;;;-3.91;83.61;100827.94;10405863;27;97217;-80
2022/01/16 18:59:03;;;;;;;128.30;39.00;;;-1.60;99.90;;;-3.93;83.84;100826.31;10430979;27;96712;-80
2022/01/16 19:04:06;;;;;;;181.60;56.53;;;-1.60;99.90;;;-3.98;83.79;100828.25;10436998;27;97345;-80
2022/01/16 19:09:09;;;;;;;150.13;44.33;;;-1.70;99.90;;;-4.04;83.84;100830.19;10385815;28;97973;-80
2022/01/16 19:14:12;;;;;;;95.20;35.53;;;-1.70;99.90;;;-4.10;83.83;100825.22;10358743;27;98846;-76
2022/01/16 19:19:16;;;;;;;88.97;31.20;;;-1.80;99.90;;;-4.17;84.08;100833.31;10419535;27;96807;-78
2022/01/16 19:24:19;;;;;;;88.40;32.30;;;-1.80;99.90;;;-4.25;84.40;100828.44;10402705;27;96560;-78
2022/01/16 19:29:24;;;;;;;83.33;28.33;;;-1.90;99.90;;;-4.33;83.96;100830.44;10399536;27;97353;-77
2022/01/16 19:34:27;;;;;;;68.60;24.37;;;-2.00;99.90;;;-4.42;84.26;100810.06;10406342;27;99744;-79
2022/01/16 19:39:30;;;;;;;70.13;26.27;;;-2.10;99.90;;;-4.50;84.65;100812.06;10403282;27;96609;-78
2022/01/16 19:44:33;;;;;;;82.00;27.83;;;-2.10;99.90;;;-4.61;84.76;100807.31;10390606;27;98340;-77
2022/01/16 19:49:37;;;;;;;83.20;27.00;;;-2.20;99.90;;;-4.72;84.33;100812.88;10419992;27;98989;-77
2022/01/16 19:54:41;;;;;;;79.97;28.07;;;-2.30;99.90;;;-4.81;84.89;100814.94;10398191;27;96437;-77
2022/01/16 19:59:45;;;;;;;96.40;32.83;;;-2.40;99.90;;;-4.89;85.01;100830.78;10430264;27;96560;-77
2022/01/16 20:04:48;;;;;;;68.10;23.50;;;-2.40;99.90;;;-4.96;85.50;100832.75;10404341;27;96557;-77
2022/01/16 20:09:51;;;;;;;85.33;26.37;;;-2.60;99.90;;;-4.99;85.76;100839.78;10414644;27;97641;-77
2022/01/16 20:14:54;;;;;;;81.57;28.20;;;-2.60;99.90;;;-5.01;86.18;100857.13;10410196;27;96829;-77
2022/01/16 20:19:58;;;;;;;99.80;30.47;;;-2.70;99.90;;;-5.03;86.50;100861.53;10423446;27;96943;-77
2022/01/16 20:25:01;;;;;;;93.93;31.40;;;-2.70;99.90;;;-4.91;87.08;100861.13;10427971;27;96523;-77
2022/01/16 20:30:05;;;;;;;87.33;27.77;;;-2.60;99.90;;;-4.73;87.29;100857.03;10420559;27;96594;-77
2022/01/16 20:35:08;;;;;;;102.63;32.60;;;-2.50;99.90;;;-4.54;87.10;100858.03;10371868;27;96820;-77
2022/01/16 20:40:15;;;;;;;78.43;29.13;;;-2.40;99.90;;;-4.38;87.85;100854.00;10415843;27;98105;-77
2022/01/16 20:45:20;;;;;;;93.20;31.43;;;-2.30;99.90;;;-4.25;87.95;100854.38;10424443;27;96566;-77
2022/01/16 20:50:24;;;;;;;80.53;30.40;;;-2.10;99.90;;;-4.14;87.75;100861.72;10426341;27;96595;-77
2022/01/16 20:55:27;;;;;;;78.23;27.20;;;-2.10;99.90;;;-4.06;87.56;100857.97;10418431;27;96642;-78
2022/01/16 21:00:30;;;;;;;68.80;25.93;;;-1.90;99.90;;;-3.98;87.16;100836.88;10417024;27;96494;-77
2022/01/16 21:05:38;;;;;;;70.07;23.83;;;-1.90;99.90;;;-3.94;87.32;100822.03;10408884;27;96569;-77
2022/01/16 21:10:42;;;;;;;71.37;24.10;;;-1.80;99.90;;;-3.89;87.11;100820.13;10396834;27;97946;-77
2022/01/16 21:15:47;;;;;;;67.63;22.57;;;-1.80;99.90;;;-3.83;87.11;100805.13;10388912;28;96573;-77
2022/01/16 21:20:57;;;;;;;85.30;26.27;;;-1.70;99.90;;;-3.77;86.95;100794.50;10346142;28;96643;-77
2022/01/16 21:26:00;;;;;;;70.47;26.77;;;-1.70;99.90;;;-3.68;86.97;100776.81;10392827;28;96507;-77
2022/01/16 21:31:03;;;;;;;100.47;31.60;;;-1.60;99.90;;;-3.62;87.17;100766.19;10374048;28;96626;-76
2022/01/16 21:36:06;;;;;;;33.40;14.27;;;-1.60;99.90;;;-2.86;91.31;100754.22;10377866;28;98639;-76